sensor_id;sensor_type;location;lat;lon;timestamp;pressure;altitude;pressure_sealevel;temperature;humidity
11444;BME280;5778;47.856;12.154;2022-09-03T00:00:00;96061.66;;;13.24;100.00
11444;BME280;5778;47.856;12.154;2022-09-03T00:02:37;96063.06;;;13.06;100.00
11444;BME280;5778;47.856;12.154;2022-09-03T00:05:13;96060.66;;;13.00;100.00
11444;BME280;5778;47.856;12.154;2022-09-03T00:07:50;96062.53;;;12.94;100.00
11444;BME280;5778;47.856;12.154;2022-09-03T00:10:27;96055.59;;;12.98;100.00
11444;BME280;5778;47.856;12.154;2022-09-03T00:12:57;96055.84;;;13.07;100.00
11444;BME280;5778;47.856;12.154;2022-09-03T00:15:27;96063.34;;;12.85;100.00
11444;BME280;5778;47.856;12.154;2022-09-03T00:18:00;96068.47;;;12.76;100.00
11444;BME280;5778;47.856;12.154;2022-09-03T00:20:32;96071.94;;;12.72;100.00
11444;BME280;5778;47.856;12.154;2022-09-03T00:23:04;96070.88;;;12.73;100.00
11444;BME280;5778;47.856;12.154;2022-09-03T00:25:39;96068.75;;;12.70;100.00
11444;BME280;5778;47.856;12.154;2022-09-03T00:28:13;96078.88;;;12.78;100.00
11444;BME280;5778;47.856;12.154;2022-09-03T00:30:45;96070.63;;;12.69;100.00
11444;BME280;5778;47.856;12.154;2022-09-03T00:33:17;96074.06;;;12.80;100.00
11444;BME280;5778;47.856;12.154;2022-09-03T00:35:49;96067.69;;;12.76;100.00
11444;BME280;5778;47.856;12.154;2022-09-03T00:38:20;96066.56;;;12.87;100.00
11444;BME280;5778;47.856;12.154;2022-09-03T00:40:55;96072.19;;;12.85;100.00
11444;BME280;5778;47.856;12.154;2022-09-03T00:43:38;96077.78;;;12.84;100.00
11444;BME280;5778;47.856;12.154;2022-09-03T00:46:14;96085.28;;;12.77;100.00
11444;BME280;5778;47.856;12.154;2022-09-03T00:48:58;96074.59;;;12.82;100.00
11444;BME280;5778;47.856;12.154;2022-09-03T00:51:35;96084.47;;;12.81;100.00
11444;BME280;5778;47.856;12.154;2022-09-03T00:54:11;96083.91;;;12.89;100.00
11444;BME280;5778;47.856;12.154;2022-09-03T00:56:45;96083.09;;;12.94;100.00
11444;BME280;5778;47.856;12.154;2022-09-03T00:59:28;96079.59;;;12.93;100.00
11444;BME280;5778;47.856;12.154;2022-09-03T01:02:05;96075.63;;;12.96;100.00
11444;BME280;5778;47.856;12.154;2022-09-03T01:04:50;96085.19;;;13.07;100.00
11444;BME280;5778;47.856;12.154;2022-09-03T01:07:30;96083.59;;;13.06;100.00
11444;BME280;5778;47.856;12.154;2022-09-03T01:10:11;96086.53;;;13.04;100.00
11444;BME280;5778;47.856;12.154;2022-09-03T01:12:50;96085.47;;;13.10;100.00
11444;BME280;5778;47.856;12.154;2022-09-03T01:15:27;96092.16;;;13.13;100.00
11444;BME280;5778;47.856;12.154;2022-09-03T01:18:10;96091.03;;;13.19;100.00
11444;BME280;5778;47.856;12.154;2022-09-03T01:20:51;96086.19;;;13.26;100.00
11444;BME280;5778;47.856;12.154;2022-09-03T01:26:34;96082.44;;;13.32;100.00
11444;BME280;5778;47.856;12.154;2022-09-03T01:29:13;96090.78;;;13.15;100.00
11444;BME280;5778;47.856;12.154;2022-09-03T01:31:54;96083.81;;;13.19;100.00
11444;BME280;5778;47.856;12.154;2022-09-03T01:34:34;96075.75;;;13.29;100.00
11444;BME280;5778;47.856;12.154;2022-09-03T01:37:11;96071.75;;;13.32;100.00
11444;BME280;5778;47.856;12.154;2022-09-03T01:39:48;96071.00;;;13.26;100.00
11444;BME280;5778;47.856;12.154;2022-09-03T01:42:22;96081.97;;;13.20;100.00
11444;BME280;5778;47.856;12.154;2022-09-03T01:45:16;96087.28;;;13.20;100.00
11444;BME280;5778;47.856;12.154;2022-09-03T01:47:56;96089.69;;;13.26;100.00
11444;BME280;5778;47.856;12.154;2022-09-03T01:50:38;96080.28;;;13.34;100.00
11444;BME280;5778;47.856;12.154;2022-09-03T01:53:15;96086.91;;;13.41;100.00
11444;BME280;5778;47.856;12.154;2022-09-03T01:56:01;96089.59;;;13.36;100.00
11444;BME280;5778;47.856;12.154;2022-09-03T01:58:36;96090.69;;;13.35;100.00
11444;BME280;5778;47.856;12.154;2022-09-03T02:01:13;96090.94;;;13.39;100.00
11444;BME280;5778;47.856;12.154;2022-09-03T02:03:44;96088.81;;;13.41;100.00
11444;BME280;5778;47.856;12.154;2022-09-03T02:06:12;96077.59;;;13.39;100.00
11444;BME280;5778;47.856;12.154;2022-09-03T02:08:40;96081.03;;;13.44;100.00
11444;BME280;5778;47.856;12.154;2022-09-03T02:11:08;96070.84;;;13.51;100.00
11444;BME280;5778;47.856;12.154;2022-09-03T02:13:37;96068.94;;;13.57;100.00
11444;BME280;5778;47.856;12.154;2022-09-03T02:16:12;96068.66;;;13.58;100.00
11444;BME280;5778;47.856;12.154;2022-09-03T02:18:43;96069.50;;;13.54;100.00
11444;BME280;5778;47.856;12.154;2022-09-03T02:21:14;96075.66;;;13.54;100.00
11444;BME280;5778;47.856;12.154;2022-09-03T02:23:45;96069.03;;;13.42;100.00
11444;BME280;5778;47.856;12.154;2022-09-03T02:26:15;96075.69;;;13.44;100.00
11444;BME280;5778;47.856;12.154;2022-09-03T02:28:44;96073.78;;;13.50;100.00
11444;BME280;5778;47.856;12.154;2022-09-03T02:31:13;96073.75;;;13.55;100.00
11444;BME280;5778;47.856;12.154;2022-09-03T02:33:43;96063.59;;;13.57;100.00
11444;BME280;5778;47.856;12.154;2022-09-03T02:36:13;96073.72;;;13.60;100.00
11444;BME280;5778;47.856;12.154;2022-09-03T02:38:42;96075.63;;;13.59;100.00
11444;BME280;5778;47.856;12.154;2022-09-03T02:41:10;96076.66;;;13.58;100.00
11444;BME280;5778;47.856;12.154;2022-09-03T02:43:41;96078.00;;;13.56;100.00
11444;BME280;5778;47.856;12.154;2022-09-03T02:46:17;96062.50;;;13.63;100.00
11444;BME280;5778;47.856;12.154;2022-09-03T02:48:47;96058.47;;;13.65;100.00
11444;BME280;5778;47.856;12.154;2022-09-03T02:51:14;96058.72;;;13.69;100.00
11444;BME280;5778;47.856;12.154;2022-09-03T02:53:41;96053.41;;;13.64;100.00
11444;BME280;5778;47.856;12.154;2022-09-03T02:56:08;96051.53;;;13.64;100.00
11444;BME280;5778;47.856;12.154;2022-09-03T02:58:36;96052.09;;;13.61;100.00
11444;BME280;5778;47.856;12.154;2022-09-03T03:01:04;96048.09;;;13.59;100.00
11444;BME280;5778;47.856;12.154;2022-09-03T03:03:33;96068.94;;;13.57;100.00
11444;BME280;5778;47.856;12.154;2022-09-03T03:06:03;96067.06;;;13.57;100.00
11444;BME280;5778;47.856;12.154;2022-09-03T03:08:31;96055.88;;;13.55;100.00
11444;BME280;5778;47.856;12.154;2022-09-03T03:10:59;96057.69;;;13.60;100.00
11444;BME280;5778;47.856;12.154;2022-09-03T03:13:27;96059.81;;;13.63;100.00
11444;BME280;5778;47.856;12.154;2022-09-03T03:15:55;96057.41;;;13.66;100.00
11444;BME280;5778;47.856;12.154;2022-09-03T03:18:22;96065.91;;;13.68;100.00
11444;BME280;5778;47.856;12.154;2022-09-03T03:20:51;96063.53;;;13.67;100.00
11444;BME280;5778;47.856;12.154;2022-09-03T03:23:19;96069.16;;;13.65;100.00
11444;BME280;5778;47.856;12.154;2022-09-03T03:25:46;96065.69;;;13.65;100.00
11444;BME280;5778;47.856;12.154;2022-09-03T03:28:13;96066.25;;;13.62;100.00
11444;BME280;5778;47.856;12.154;2022-09-03T03:30:40;96068.97;;;13.52;100.00
11444;BME280;5778;47.856;12.154;2022-09-03T03:33:07;96068.97;;;13.52;100.00
11444;BME280;5778;47.856;12.154;2022-09-03T03:35:35;96074.56;;;13.55;100.00
11444;BME280;5778;47.856;12.154;2022-09-03T03:38:03;96070.06;;;13.51;100.00
11444;BME280;5778;47.856;12.154;2022-09-03T03:40:31;96068.44;;;13.50;100.00
11444;BME280;5778;47.856;12.154;2022-09-03T03:42:58;96070.06;;;13.51;100.00
11444;BME280;5778;47.856;12.154;2022-09-03T03:45:25;96072.97;;;13.54;100.00
11444;BME280;5778;47.856;12.154;2022-09-03T03:47:56;96070.81;;;13.56;100.00
11444;BME280;5778;47.856;12.154;2022-09-03T03:50:23;96073.56;;;13.41;100.00
11444;BME280;5778;47.856;12.154;2022-09-03T03:52:50;96083.56;;;13.21;100.00
11444;BME280;5778;47.856;12.154;2022-09-03T03:55:19;96079.81;;;13.17;100.00
11444;BME280;5778;47.856;12.154;2022-09-03T03:57:46;96088.41;;;13.14;100.00
11444;BME280;5778;47.856;12.154;2022-09-03T04:00:14;96095.56;;;13.18;100.00
11444;BME280;5778;47.856;12.154;2022-09-03T04:02:42;96092.09;;;13.18;100.00
11444;BME280;5778;47.856;12.154;2022-09-03T04:05:09;96087.06;;;13.11;100.00
11444;BME280;5778;47.856;12.154;2022-09-03T04:07:36;96090.78;;;13.15;100.00
11444;BME280;5778;47.856;12.154;2022-09-03T04:10:03;96085.16;;;13.17;100.00
11444;BME280;5778;47.856;12.154;2022-09-03T04:12:32;96081.94;;;13.25;100.00
11444;BME280;5778;47.856;12.154;2022-09-03T04:14:59;96094.22;;;13.26;100.00
11444;BME280;5778;47.856;12.154;2022-09-03T04:17:26;96092.06;;;13.23;100.00
11444;BME280;5778;47.856;12.154;2022-09-03T04:19:53;96092.63;;;13.20;100.00
11444;BME280;5778;47.856;12.154;2022-09-03T04:22:20;96099.59;;;13.16;100.00
11444;BME280;5778;47.856;12.154;2022-09-03T04:24:48;96099.59;;;13.11;100.00
11444;BME280;5778;47.856;12.154;2022-09-03T04:27:15;96098.03;;;13.05;100.00
11444;BME280;5778;47.856;12.154;2022-09-03T04:29:43;96106.03;;;13.05;100.00
11444;BME280;5778;47.856;12.154;2022-09-03T04:32:10;96108.69;;;13.10;100.00
11444;BME280;5778;47.856;12.154;2022-09-03T04:34:54;96104.94;;;13.11;100.00
11444;BME280;5778;47.856;12.154;2022-09-03T04:37:22;96099.59;;;13.11;100.00
11444;BME280;5778;47.856;12.154;2022-09-03T04:39:50;96104.97;;;13.06;100.00
11444;BME280;5778;47.856;12.154;2022-09-03T04:42:18;96106.59;;;13.02;100.00
11444;BME280;5778;47.856;12.154;2022-09-03T04:44:48;96095.34;;;13.10;100.00
11444;BME280;5778;47.856;12.154;2022-09-03T04:47:15;96092.16;;;13.13;100.00
11444;BME280;5778;47.856;12.154;2022-09-03T04:49:42;96095.88;;;13.07;100.00
11444;BME280;5778;47.856;12.154;2022-09-03T04:52:09;96107.09;;;12.94;100.00
11444;BME280;5778;47.856;12.154;2022-09-03T04:54:36;96111.69;;;12.88;100.00
11444;BME280;5778;47.856;12.154;2022-09-03T04:57:03;96109.28;;;12.97;100.00
11444;BME280;5778;47.856;12.154;2022-09-03T04:59:30;96113.53;;;12.98;100.00
11444;BME280;5778;47.856;12.154;2022-09-03T05:01:59;96113.78;;;13.01;100.00
11444;BME280;5778;47.856;12.154;2022-09-03T05:04:26;96105.78;;;13.06;100.00
11444;BME280;5778;47.856;12.154;2022-09-03T05:06:53;96100.19;;;13.03;100.00
11444;BME280;5778;47.856;12.154;2022-09-03T05:09:19;96103.94;;;12.82;100.00
11444;BME280;5778;47.856;12.154;2022-09-03T05:11:46;96107.69;;;12.81;100.00
11444;BME280;5778;47.856;12.154;2022-09-03T05:14:14;96105.28;;;12.84;100.00
11444;BME280;5778;47.856;12.154;2022-09-03T05:16:41;96110.84;;;13.03;100.00
11444;BME280;5778;47.856;12.154;2022-09-03T05:19:09;96107.63;;;13.11;100.00
11444;BME280;5778;47.856;12.154;2022-09-03T05:21:37;96111.88;;;13.17;100.00
11444;BME280;5778;47.856;12.154;2022-09-03T05:24:04;96101.19;;;13.17;100.00
11444;BME280;5778;47.856;12.154;2022-09-03T05:26:35;96094.22;;;13.21;100.00
11444;BME280;5778;47.856;12.154;2022-09-03T05:29:04;96088.34;;;13.24;100.00
11444;BME280;5778;47.856;12.154;2022-09-03T05:31:32;96097.44;;;13.18;100.00
11444;BME280;5778;47.856;12.154;2022-09-03T05:34:02;96107.84;;;13.19;100.00
11444;BME280;5778;47.856;12.154;2022-09-03T05:36:32;96103.75;;;13.42;100.00
11444;BME280;5778;47.856;12.154;2022-09-03T05:39:01;96107.72;;;13.49;100.00
11444;BME280;5778;47.856;12.154;2022-09-03T05:41:28;96105.31;;;13.53;100.00
11444;BME280;5778;47.856;12.154;2022-09-03T05:43:57;96110.16;;;13.46;100.00
11444;BME280;5778;47.856;12.154;2022-09-03T05:49:46;96108.75;;;13.53;100.00
11444;BME280;5778;47.856;12.154;2022-09-03T05:52:14;96109.63;;;13.39;100.00
11444;BME280;5778;47.856;12.154;2022-09-03T05:54:43;96102.19;;;13.36;100.00
11444;BME280;5778;47.856;12.154;2022-09-03T05:57:27;96102.56;;;13.68;100.00
11444;BME280;5778;47.856;12.154;2022-09-03T05:59:55;96103.47;;;13.87;100.00
11444;BME280;5778;47.856;12.154;2022-09-03T06:02:22;96098.34;;;13.95;100.00
11444;BME280;5778;47.856;12.154;2022-09-03T06:04:49;96103.28;;;14.17;100.00
11444;BME280;5778;47.856;12.154;2022-09-03T06:07:20;96117.16;;;14.19;100.00
11444;BME280;5778;47.856;12.154;2022-09-03T06:09:48;96110.56;;;14.06;100.00
11444;BME280;5778;47.856;12.154;2022-09-03T06:12:15;96112.13;;;14.12;100.00
11444;BME280;5778;47.856;12.154;2022-09-03T06:14:42;96113.78;;;14.08;100.00
11444;BME280;5778;47.856;12.154;2022-09-03T06:17:09;96110.03;;;14.09;100.00
11444;BME280;5778;47.856;12.154;2022-09-03T06:19:53;96109.91;;;13.86;100.00
11444;BME280;5778;47.856;12.154;2022-09-03T06:22:21;96131.06;;;13.82;100.00
11444;BME280;5778;47.856;12.154;2022-09-03T06:24:52;96145.78;;;13.75;100.00
11444;BME280;5778;47.856;12.154;2022-09-03T06:27:20;96156.44;;;13.85;100.00
11444;BME280;5778;47.856;12.154;2022-09-03T06:29:47;96145.53;;;13.76;100.00
11444;BME280;5778;47.856;12.154;2022-09-03T06:32:14;96135.19;;;14.03;100.00
11444;BME280;5778;47.856;12.154;2022-09-03T06:34:41;96140.19;;;14.15;100.00
11444;BME280;5778;47.856;12.154;2022-09-03T06:37:09;96143.84;;;14.34;100.00
11444;BME280;5778;47.856;12.154;2022-09-03T06:39:38;96146.38;;;14.10;100.00
11444;BME280;5778;47.856;12.154;2022-09-03T06:42:06;96151.63;;;14.59;100.00
11444;BME280;5778;47.856;12.154;2022-09-03T06:44:35;96157.09;;;14.49;100.00
11444;BME280;5778;47.856;12.154;2022-09-03T06:47:15;96173.16;;;14.49;100.00
11444;BME280;5778;47.856;12.154;2022-09-03T06:49:44;96174.34;;;14.33;100.00
11444;BME280;5778;47.856;12.154;2022-09-03T06:52:11;96191.94;;;14.39;100.00
11444;BME280;5778;47.856;12.154;2022-09-03T06:54:40;96195.06;;;14.51;100.00
11444;BME280;5778;47.856;12.154;2022-09-03T06:57:14;96188.59;;;14.57;100.00
11444;BME280;5778;47.856;12.154;2022-09-03T06:59:41;96181.75;;;14.74;100.00
11444;BME280;5778;47.856;12.154;2022-09-03T07:02:08;96180.34;;;15.10;100.00
11444;BME280;5778;47.856;12.154;2022-09-03T07:04:35;96175.72;;;15.44;100.00
11444;BME280;5778;47.856;12.154;2022-09-03T07:07:11;96169.63;;;15.81;100.00
11444;BME280;5778;47.856;12.154;2022-09-03T07:09:42;96174.34;;;16.07;100.00
11444;BME280;5778;47.856;12.154;2022-09-03T07:12:09;96182.34;;;16.31;100.00
11444;BME280;5778;47.856;12.154;2022-09-03T07:14:36;96187.38;;;16.56;100.00
11444;BME280;5778;47.856;12.154;2022-09-03T07:17:10;96188.63;;;16.77;100.00
11444;BME280;5778;47.856;12.154;2022-09-03T07:19:37;96189.41;;;16.77;100.00
11444;BME280;5778;47.856;12.154;2022-09-03T07:22:04;96185.28;;;16.85;100.00
11444;BME280;5778;47.856;12.154;2022-09-03T07:24:32;96193.53;;;17.34;100.00
11444;BME280;5778;47.856;12.154;2022-09-03T07:27:02;96192.38;;;17.67;100.00
11444;BME280;5778;47.856;12.154;2022-09-03T07:29:29;96189.28;;;17.87;100.00
11444;BME280;5778;47.856;12.154;2022-09-03T07:31:57;96188.47;;;18.00;100.00
11444;BME280;5778;47.856;12.154;2022-09-03T07:34:24;96194.34;;;17.88;100.00
11444;BME280;5778;47.856;12.154;2022-09-03T07:36:51;96196.63;;;17.95;100.00
11444;BME280;5778;47.856;12.154;2022-09-03T07:39:19;96201.50;;;18.20;100.00
11444;BME280;5778;47.856;12.154;2022-09-03T07:41:47;96182.03;;;18.58;100.00
11444;BME280;5778;47.856;12.154;2022-09-03T07:44:17;96187.50;;;18.89;100.00
11444;BME280;5778;47.856;12.154;2022-09-03T07:46:45;96187.03;;;19.17;100.00
11444;BME280;5778;47.856;12.154;2022-09-03T07:49:14;96190.16;;;19.33;100.00
11444;BME280;5778;47.856;12.154;2022-09-03T07:51:41;96181.28;;;19.10;100.00
11444;BME280;5778;47.856;12.154;2022-09-03T07:54:10;96189.06;;;19.34;100.00
11444;BME280;5778;47.856;12.154;2022-09-03T07:56:38;96189.19;;;19.29;100.00
11444;BME280;5778;47.856;12.154;2022-09-03T07:59:06;96178.28;;;19.73;100.00
11444;BME280;5778;47.856;12.154;2022-09-03T08:01:37;96177.06;;;20.04;100.00
11444;BME280;5778;47.856;12.154;2022-09-03T08:04:05;96185.59;;;19.89;100.00
11444;BME280;5778;47.856;12.154;2022-09-03T08:06:32;96179.75;;;19.87;100.00
11444;BME280;5778;47.856;12.154;2022-09-03T08:09:03;96182.84;;;19.64;100.00
11444;BME280;5778;47.856;12.154;2022-09-03T08:11:31;96188.88;;;19.61;100.00
11444;BME280;5778;47.856;12.154;2022-09-03T08:14:01;96193.34;;;19.74;100.00
11444;BME280;5778;47.856;12.154;2022-09-03T08:16:32;96192.97;;;19.58;100.00
11444;BME280;5778;47.856;12.154;2022-09-03T08:19:00;96188.00;;;19.91;100.00
11444;BME280;5778;47.856;12.154;2022-09-03T08:21:28;96197.88;;;20.04;100.00
11444;BME280;5778;47.856;12.154;2022-09-03T08:23:56;96196.56;;;19.93;100.00
11444;BME280;5778;47.856;12.154;2022-09-03T08:26:28;96194.19;;;19.83;100.00
11444;BME280;5778;47.856;12.154;2022-09-03T08:28:55;96195.16;;;19.48;100.00
11444;BME280;5778;47.856;12.154;2022-09-03T08:31:23;96191.06;;;19.59;100.00
11444;BME280;5778;47.856;12.154;2022-09-03T08:33:54;96185.88;;;20.10;100.00
11444;BME280;5778;47.856;12.154;2022-09-03T08:36:24;96195.75;;;20.74;100.00
11444;BME280;5778;47.856;12.154;2022-09-03T08:38:53;96189.69;;;21.11;100.00
11444;BME280;5778;47.856;12.154;2022-09-03T08:41:26;96188.53;;;21.20;100.00
11444;BME280;5778;47.856;12.154;2022-09-03T08:44:19;96198.91;;;21.64;100.00
11444;BME280;5778;47.856;12.154;2022-09-03T08:46:50;96187.75;;;21.74;100.00
11444;BME280;5778;47.856;12.154;2022-09-03T08:49:23;96192.75;;;21.55;100.00
11444;BME280;5778;47.856;12.154;2022-09-03T08:51:54;96197.47;;;21.67;100.00
11444;BME280;5778;47.856;12.154;2022-09-03T08:54:25;96196.28;;;21.93;100.00
11444;BME280;5778;47.856;12.154;2022-09-03T08:56:54;96198.09;;;21.81;100.00
11444;BME280;5778;47.856;12.154;2022-09-03T08:59:23;96199.22;;;21.80;100.00
11444;BME280;5778;47.856;12.154;2022-09-03T09:01:55;96199.03;;;22.14;100.00
11444;BME280;5778;47.856;12.154;2022-09-03T09:04:36;96203.53;;;22.01;100.00
11444;BME280;5778;47.856;12.154;2022-09-03T09:07:11;96200.16;;;22.13;100.00
11444;BME280;5778;47.856;12.154;2022-09-03T09:09:45;96193.25;;;21.86;100.00
11444;BME280;5778;47.856;12.154;2022-09-03T09:12:29;96196.59;;;21.92;100.00
11444;BME280;5778;47.856;12.154;2022-09-03T09:15:06;96188.75;;;21.99;100.00
11444;BME280;5778;47.856;12.154;2022-09-03T09:17:49;96192.75;;;22.22;100.00
11444;BME280;5778;47.856;12.154;2022-09-03T09:20:27;96190.38;;;22.49;100.00
11444;BME280;5778;47.856;12.154;2022-09-03T09:23:00;96176.88;;;22.61;100.00
11444;BME280;5778;47.856;12.154;2022-09-03T09:25:28;96180.38;;;22.41;100.00
11444;BME280;5778;47.856;12.154;2022-09-03T09:27:59;96190.56;;;22.65;100.00
11444;BME280;5778;47.856;12.154;2022-09-03T09:30:27;96188.69;;;22.36;100.00
11444;BME280;5778;47.856;12.154;2022-09-03T09:32:55;96182.28;;;22.41;100.00
11444;BME280;5778;47.856;12.154;2022-09-03T09:35:23;96184.34;;;22.44;100.00
11444;BME280;5778;47.856;12.154;2022-09-03T09:37:51;96174.69;;;22.75;100.00
11444;BME280;5778;47.856;12.154;2022-09-03T09:40:36;96170.84;;;23.09;100.00
11444;BME280;5778;47.856;12.154;2022-09-03T09:43:09;96166.56;;;23.40;100.00
11444;BME280;5778;47.856;12.154;2022-09-03T09:45:37;96159.47;;;23.72;100.00
11444;BME280;5778;47.856;12.154;2022-09-03T09:48:14;96163.00;;;23.84;100.00
11444;BME280;5778;47.856;12.154;2022-09-03T09:50:43;96163.00;;;23.84;100.00
11444;BME280;5778;47.856;12.154;2022-09-03T09:53:11;96157.91;;;24.19;100.00
11444;BME280;5778;47.856;12.154;2022-09-03T09:55:52;96155.88;;;24.04;100.00
11444;BME280;5778;47.856;12.154;2022-09-03T09:58:21;96159.00;;;24.30;100.00
11444;BME280;5778;47.856;12.154;2022-09-03T10:01:11;96159.94;;;24.10;100.00
11444;BME280;5778;47.856;12.154;2022-09-03T10:03:46;96154.16;;;24.23;100.00
11444;BME280;5778;47.856;12.154;2022-09-03T10:06:14;96150.06;;;24.29;100.00
11444;BME280;5778;47.856;12.154;2022-09-03T10:09:05;96150.84;;;24.42;100.00
11444;BME280;5778;47.856;12.154;2022-09-03T10:11:37;96162.13;;;24.44;100.00
11444;BME280;5778;47.856;12.154;2022-09-03T10:14:09;96160.31;;;24.48;100.00
11444;BME280;5778;47.856;12.154;2022-09-03T10:16:41;96159.59;;;24.75;100.00
11444;BME280;5778;47.856;12.154;2022-09-03T10:19:17;96162.50;;;24.82;100.00
11444;BME280;5778;47.856;12.154;2022-09-03T10:21:52;96152.25;;;24.63;100.00
11444;BME280;5778;47.856;12.154;2022-09-03T10:24:37;96150.28;;;24.76;100.00
11444;BME280;5778;47.856;12.154;2022-09-03T10:27:09;96161.31;;;24.55;100.00
11444;BME280;5778;47.856;12.154;2022-09-03T10:29:40;96160.41;;;24.00;100.00
11444;BME280;5778;47.856;12.154;2022-09-03T10:32:19;96147.69;;;23.68;100.00
11444;BME280;5778;47.856;12.154;2022-09-03T10:34:57;96141.81;;;24.02;100.00
11444;BME280;5778;47.856;12.154;2022-09-03T10:37:36;96145.75;;;24.28;100.00
11444;BME280;5778;47.856;12.154;2022-09-03T10:40:21;96149.59;;;24.39;100.00
11444;BME280;5778;47.856;12.154;2022-09-03T10:43:18;96151.94;;;24.53;100.00
11444;BME280;5778;47.856;12.154;2022-09-03T10:46:01;96150.56;;;25.14;100.00
11444;BME280;5778;47.856;12.154;2022-09-03T10:48:41;96144.44;;;25.60;100.00
11444;BME280;5778;47.856;12.154;2022-09-03T10:51:15;96143.00;;;25.50;100.00
11444;BME280;5778;47.856;12.154;2022-09-03T10:54:06;96145.63;;;25.62;100.00
11444;BME280;5778;47.856;12.154;2022-09-03T10:56:44;96144.31;;;25.13;100.00
11444;BME280;5778;47.856;12.154;2022-09-03T10:59:38;96140.56;;;25.61;100.00
11444;BME280;5778;47.856;12.154;2022-09-03T11:02:26;96138.25;;;26.09;100.00
11444;BME280;5778;47.856;12.154;2022-09-03T11:05:00;96140.16;;;26.24;99.27
11444;BME280;5778;47.856;12.154;2022-09-03T11:07:34;96132.09;;;24.92;100.00
11444;BME280;5778;47.856;12.154;2022-09-03T11:10:11;96128.31;;;24.96;100.00
11444;BME280;5778;47.856;12.154;2022-09-03T11:12:43;96124.97;;;24.48;100.00
11444;BME280;5778;47.856;12.154;2022-09-03T11:15:17;96130.09;;;25.04;100.00
11444;BME280;5778;47.856;12.154;2022-09-03T11:17:51;96133.88;;;25.74;100.00
11444;BME280;5778;47.856;12.154;2022-09-03T11:20:23;96122.47;;;25.10;100.00
11444;BME280;5778;47.856;12.154;2022-09-03T11:22:53;96125.19;;;25.10;100.00
11444;BME280;5778;47.856;12.154;2022-09-03T11:25:24;96118.63;;;23.68;100.00
11444;BME280;5778;47.856;12.154;2022-09-03T11:27:55;96122.34;;;24.24;100.00
11444;BME280;5778;47.856;12.154;2022-09-03T11:30:34;96118.50;;;24.13;100.00
11444;BME280;5778;47.856;12.154;2022-09-03T11:33:06;96111.94;;;24.14;100.00
11444;BME280;5778;47.856;12.154;2022-09-03T11:35:40;96111.09;;;24.37;100.00
11444;BME280;5778;47.856;12.154;2022-09-03T11:38:20;96108.34;;;24.49;100.00
11444;BME280;5778;47.856;12.154;2022-09-03T11:41:00;96099.06;;;23.99;100.00
11444;BME280;5778;47.856;12.154;2022-09-03T11:43:30;96102.22;;;24.01;100.00
11444;BME280;5778;47.856;12.154;2022-09-03T11:46:05;96110.91;;;24.18;100.00
11444;BME280;5778;47.856;12.154;2022-09-03T11:48:39;96109.09;;;23.38;100.00
11444;BME280;5778;47.856;12.154;2022-09-03T11:51:20;96108.09;;;23.79;100.00
11444;BME280;5778;47.856;12.154;2022-09-03T11:53:56;96114.00;;;23.93;100.00
11444;BME280;5778;47.856;12.154;2022-09-03T11:56:23;96118.03;;;24.11;100.00
11444;BME280;5778;47.856;12.154;2022-09-03T11:59:14;96118.28;;;24.06;100.00
11444;BME280;5778;47.856;12.154;2022-09-03T12:01:48;96107.41;;;23.82;100.00
11444;BME280;5778;47.856;12.154;2022-09-03T12:04:20;96112.44;;;23.92;100.00
11444;BME280;5778;47.856;12.154;2022-09-03T12:07:07;96109.88;;;24.23;100.00
11444;BME280;5778;47.856;12.154;2022-09-03T12:09:51;96107.34;;;24.97;100.00
11444;BME280;5778;47.856;12.154;2022-09-03T12:12:31;96108.50;;;25.54;100.00
11444;BME280;5778;47.856;12.154;2022-09-03T12:15:09;96096.72;;;25.66;100.00
11444;BME280;5778;47.856;12.154;2022-09-03T12:17:47;96097.56;;;24.80;100.00
11444;BME280;5778;47.856;12.154;2022-09-03T12:20:36;96098.28;;;25.82;100.00
11444;BME280;5778;47.856;12.154;2022-09-03T12:23:04;96102.78;;;25.44;100.00
11444;BME280;5778;47.856;12.154;2022-09-03T12:25:32;96090.97;;;25.86;100.00
11444;BME280;5778;47.856;12.154;2022-09-03T12:28:00;96092.53;;;25.87;100.00
11444;BME280;5778;47.856;12.154;2022-09-03T12:30:28;96089.88;;;26.41;100.00
11444;BME280;5778;47.856;12.154;2022-09-03T12:33:04;96094.38;;;26.33;100.00
11444;BME280;5778;47.856;12.154;2022-09-03T12:35:32;96084.41;;;26.22;100.00
11444;BME280;5778;47.856;12.154;2022-09-03T12:37:59;96089.84;;;25.72;100.00
11444;BME280;5778;47.856;12.154;2022-09-03T12:40:28;96083.09;;;25.35;100.00
11444;BME280;5778;47.856;12.154;2022-09-03T12:43:11;96091.34;;;25.69;100.00
11444;BME280;5778;47.856;12.154;2022-09-03T12:45:42;96074.34;;;26.07;100.00
11444;BME280;5778;47.856;12.154;2022-09-03T12:48:13;96074.50;;;26.52;100.00
11444;BME280;5778;47.856;12.154;2022-09-03T12:50:42;96081.06;;;26.28;100.00
11444;BME280;5778;47.856;12.154;2022-09-03T12:53:11;96077.97;;;26.49;100.00
11444;BME280;5778;47.856;12.154;2022-09-03T12:55:42;96069.28;;;26.81;100.00
11444;BME280;5778;47.856;12.154;2022-09-03T12:58:12;96070.94;;;26.86;100.00
11444;BME280;5778;47.856;12.154;2022-09-03T13:00:45;96055.84;;;27.14;100.00
11444;BME280;5778;47.856;12.154;2022-09-03T13:03:18;96051.63;;;27.17;96.41
11444;BME280;5778;47.856;12.154;2022-09-03T13:05:50;96051.69;;;27.20;100.00
11444;BME280;5778;47.856;12.154;2022-09-03T13:08:21;96049.91;;;27.09;98.71
11444;BME280;5778;47.856;12.154;2022-09-03T13:10:51;96046.09;;;27.13;95.38
11444;BME280;5778;47.856;12.154;2022-09-03T13:13:22;96050.91;;;27.20;97.58
11444;BME280;5778;47.856;12.154;2022-09-03T13:16:03;96056.69;;;26.96;97.89
11444;BME280;5778;47.856;12.154;2022-09-03T13:18:38;96051.31;;;26.99;96.83
11444;BME280;5778;47.856;12.154;2022-09-03T13:21:14;96049.97;;;27.12;97.82